Time;durP1;ratioP1;P1;durP2;ratioP2;P2;SDS_P1;SDS_P2;PMS_P1;PMS_P2;Temp;Humidity;BMP_temperature;BMP_pressure;BME280_temperature;BME280_humidity;BME280_pressure;Samples;Min_cycle;Max_cycle;Signal;HPM_P1;HPM_P2
2022/07/10 00:00:40;;;;;;;5.22;3.15;;;;;;;;;;7315026;19;163201;-14
2022/07/10 00:03:12;;;;;;;6.97;3.35;;;;;;;;;;7315627;19;154911;-15
2022/07/10 00:05:43;;;;;;;5.22;3.00;;;;;;;;;;7313656;19;153991;-15
2022/07/10 00:08:14;;;;;;;10.55;3.00;;;;;;;;;;7315046;19;162237;-15
2022/07/10 00:10:45;;;;;;;11.05;2.95;;;;;;;;;;7313315;19;162801;-15
2022/07/10 00:13:19;;;;;;;7.47;3.35;;;;;;;;;;7313698;19;154463;-16
2022/07/10 00:15:50;;;;;;;11.18;3.95;;;;;;;;;;7315237;19;153939;-15
2022/07/10 00:18:21;;;;;;;8.05;2.80;;;;;;;;;;7314825;19;162669;-15
2022/07/10 00:20:53;;;;;;;5.18;3.10;;;;;;;;;;7314810;19;162871;-15
2022/07/10 00:23:24;;;;;;;11.52;3.60;;;;;;;;;;7315085;19;154404;-16
2022/07/10 00:25:55;;;;;;;7.38;2.90;;;;;;;;;;7314090;19;154012;-15
2022/07/10 00:28:29;;;;;;;7.35;2.80;;;;;;;;;;7314268;19;162263;-15
2022/07/10 00:31:00;;;;;;;7.30;3.03;;;;;;;;;;7311141;19;162851;-16
2022/07/10 00:33:32;;;;;;;10.13;3.00;;;;;;;;;;7315060;19;154379;-15
2022/07/10 00:36:03;;;;;;;10.57;2.90;;;;;;;;;;7314607;19;154039;-15
2022/07/10 00:38:34;;;;;;;7.07;2.85;;;;;;;;;;7314636;19;162660;-15
2022/07/10 00:41:05;;;;;;;4.60;3.15;;;;;;;;;;7314008;19;162830;-15
2022/07/10 00:43:57;;;;;;;4.55;2.75;;;;;;;;;;7314789;19;154490;-16
2022/07/10 00:46:29;;;;;;;12.10;3.53;;;;;;;;;;7314445;19;153964;-15
2022/07/10 00:49:01;;;;;;;8.45;3.35;;;;;;;;;;7314188;19;162246;-15
2022/07/10 00:51:33;;;;;;;15.27;2.95;;;;;;;;;;7312044;19;163213;-16
2022/07/10 00:54:05;;;;;;;5.13;3.05;;;;;;;;;;7314259;19;154788;-15
2022/07/10 00:56:36;;;;;;;10.85;3.15;;;;;;;;;;7312537;19;154724;-15
2022/07/10 00:59:12;;;;;;;5.82;2.63;;;;;;;;;;7313823;19;162227;-15
2022/07/10 01:01:43;;;;;;;6.65;2.95;;;;;;;;;;7313593;19;162832;-15
2022/07/10 01:04:14;;;;;;;8.45;3.53;;;;;;;;;;7312662;19;155155;-16
2022/07/10 01:06:46;;;;;;;6.93;3.15;;;;;;;;;;7312137;19;154008;-18
2022/07/10 01:09:17;;;;;;;8.43;3.13;;;;;;;;;;7313724;19;162705;-16
2022/07/10 01:11:49;;;;;;;10.02;3.63;;;;;;;;;;7311312;19;162860;-16
2022/07/10 01:14:24;;;;;;;10.73;3.10;;;;;;;;;;7312471;19;154528;-15
2022/07/10 01:16:55;;;;;;;9.38;3.15;;;;;;;;;;7313841;19;154575;-16
2022/07/10 01:19:27;;;;;;;6.82;2.85;;;;;;;;;;7313304;19;162305;-16
2022/07/10 01:22:01;;;;;;;4.75;2.65;;;;;;;;;;7313292;19;163273;-15
2022/07/10 01:24:32;;;;;;;6.45;3.13;;;;;;;;;;7312089;19;155015;-16
2022/07/10 01:27:07;;;;;;;5.07;2.97;;;;;;;;;;7311911;19;153964;-16
2022/07/10 01:29:40;;;;;;;5.30;3.17;;;;;;;;;;7312424;19;162355;-17
2022/07/10 01:32:12;;;;;;;5.22;3.03;;;;;;;;;;7310487;19;162779;-15
2022/07/10 01:34:43;;;;;;;11.35;3.65;;;;;;;;;;7314463;19;154464;-16
2022/07/10 01:37:17;;;;;;;5.45;3.05;;;;;;;;;;7307916;19;154047;-16
2022/07/10 01:39:48;;;;;;;5.20;2.90;;;;;;;;;;7312815;19;162213;-15
2022/07/10 01:42:20;;;;;;;8.32;3.08;;;;;;;;;;7313757;19;162790;-15
2022/07/10 01:44:52;;;;;;;6.78;3.10;;;;;;;;;;7313169;19;154672;-16
2022/07/10 01:47:24;;;;;;;6.95;3.28;;;;;;;;;;7313049;19;154597;-16
2022/07/10 01:49:55;;;;;;;5.57;3.00;;;;;;;;;;7312559;19;162027;-16
2022/07/10 01:52:29;;;;;;;4.68;2.88;;;;;;;;;;7309904;19;162808;-16
2022/07/10 01:55:00;;;;;;;8.52;3.00;;;;;;;;;;7311150;19;154471;-15
2022/07/10 01:57:31;;;;;;;5.63;3.00;;;;;;;;;;7314230;19;153925;-16
2022/07/10 02:00:02;;;;;;;8.20;3.00;;;;;;;;;;7309932;19;162820;-16
2022/07/10 02:04:40;;;;;;;8.35;2.95;;;;;;;;;;7313590;19;162874;-15
2022/07/10 02:05:31;;;;;;;6.78;2.85;;;;;;;;;;7309877;19;155016;-16
2022/07/10 02:08:06;;;;;;;6.03;2.83;;;;;;;;;;7312351;19;154451;-16
2022/07/10 02:10:37;;;;;;;5.22;2.95;;;;;;;;;;7313603;19;164379;-16
2022/07/10 02:13:09;;;;;;;3.85;2.90;;;;;;;;;;7306386;19;163386;-15
2022/07/10 02:15:40;;;;;;;3.63;2.60;;;;;;;;;;7312386;19;154474;-15
2022/07/10 02:18:12;;;;;;;3.35;3.00;;;;;;;;;;7313723;19;153907;-16
2022/07/10 02:20:43;;;;;;;3.85;2.88;;;;;;;;;;7310558;19;162228;-16
2022/07/10 02:23:17;;;;;;;4.30;2.47;;;;;;;;;;7311571;19;162923;-16
2022/07/10 02:25:48;;;;;;;4.25;2.92;;;;;;;;;;7311008;19;154784;-16
2022/07/10 02:28:19;;;;;;;5.40;2.55;;;;;;;;;;7310608;19;154027;-16
2022/07/10 02:30:51;;;;;;;4.40;2.97;;;;;;;;;;7311821;19;162813;-15
2022/07/10 02:33:23;;;;;;;8.88;3.10;;;;;;;;;;7307532;19;162877;-16
2022/07/10 02:35:54;;;;;;;5.97;2.55;;;;;;;;;;7310569;19;154523;-16
2022/07/10 02:38:28;;;;;;;5.03;2.78;;;;;;;;;;7310440;19;154387;-16
2022/07/10 02:40:59;;;;;;;4.07;2.80;;;;;;;;;;7310496;19;162305;-16
2022/07/10 02:43:30;;;;;;;5.50;2.72;;;;;;;;;;7310092;19;163390;-16
2022/07/10 02:46:02;;;;;;;4.93;2.53;;;;;;;;;;7311680;19;154530;-16
2022/07/10 02:48:36;;;;;;;5.35;2.83;;;;;;;;;;7313139;19;154002;-16
2022/07/10 02:51:07;;;;;;;6.57;2.78;;;;;;;;;;7315660;19;162942;-16
2022/07/10 02:53:41;;;;;;;3.20;2.60;;;;;;;;;;7318588;19;162866;-16
2022/07/10 02:56:12;;;;;;;3.00;2.40;;;;;;;;;;7318424;19;154358;-15
2022/07/10 02:58:43;;;;;;;5.22;2.78;;;;;;;;;;7317868;19;154592;-16
2022/07/10 03:01:15;;;;;;;3.20;2.90;;;;;;;;;;7318368;19;162615;-16
2022/07/10 03:03:46;;;;;;;3.42;2.70;;;;;;;;;;7316947;19;163167;-16
2022/07/10 03:06:18;;;;;;;4.65;2.88;;;;;;;;;;7316421;19;154486;-16
2022/07/10 03:08:52;;;;;;;4.45;2.88;;;;;;;;;;7318786;19;154113;-23
2022/07/10 03:11:23;;;;;;;4.78;2.60;;;;;;;;;;7314419;19;162350;-16
2022/07/10 03:13:54;;;;;;;4.25;2.60;;;;;;;;;;7316912;19;163045;-16
2022/07/10 03:16:25;;;;;;;3.20;2.50;;;;;;;;;;7319000;19;154761;-16
2022/07/10 03:18:56;;;;;;;4.88;2.70;;;;;;;;;;7316994;19;153951;-16
2022/07/10 03:21:30;;;;;;;3.70;2.60;;;;;;;;;;7315368;19;162385;-17
2022/07/10 03:24:03;;;;;;;5.10;2.50;;;;;;;;;;7317732;19;163199;-16
2022/07/10 03:26:35;;;;;;;2.92;2.47;;;;;;;;;;7315836;19;154982;-15
2022/07/10 03:29:06;;;;;;;4.50;2.90;;;;;;;;;;7317132;19;153960;-17
2022/07/10 03:31:37;;;;;;;3.17;2.80;;;;;;;;;;7317943;19;162189;-17
2022/07/10 03:34:11;;;;;;;4.88;2.35;;;;;;;;;;7314066;19;162870;-17
2022/07/10 03:36:42;;;;;;;5.32;2.63;;;;;;;;;;7316169;19;154504;-17
2022/07/10 03:39:16;;;;;;;3.08;2.55;;;;;;;;;;7315719;19;154399;-16
2022/07/10 03:41:47;;;;;;;3.60;2.42;;;;;;;;;;7315947;19;162698;-16
2022/07/10 03:44:19;;;;;;;2.47;2.28;;;;;;;;;;7317191;19;163254;-17
2022/07/10 03:46:50;;;;;;;3.28;2.42;;;;;;;;;;7315921;19;154365;-17
2022/07/10 03:49:21;;;;;;;3.92;2.30;;;;;;;;;;7315728;19;154031;-17
2022/07/10 03:51:52;;;;;;;4.75;2.90;;;;;;;;;;7316721;19;162194;-17
2022/07/10 03:54:26;;;;;;;3.50;2.35;;;;;;;;;;7314669;19;162701;-16
2022/07/10 03:59:41;;;;;;;3.40;2.42;;;;;;;;;;7312581;19;154115;-17
2022/07/10 04:02:12;;;;;;;2.97;2.63;;;;;;;;;;7315946;19;162256;-17
2022/07/10 04:04:43;;;;;;;3.20;2.63;;;;;;;;;;7314813;19;162821;-17
2022/07/10 04:07:16;;;;;;;4.55;2.45;;;;;;;;;;7314799;19;154485;-17
2022/07/10 04:09:50;;;;;;;2.67;2.47;;;;;;;;;;7316212;19;154115;-17
2022/07/10 04:12:21;;;;;;;2.83;2.45;;;;;;;;;;7314456;19;162209;-17
2022/07/10 04:14:52;;;;;;;3.92;2.92;;;;;;;;;;7313279;19;164055;-17
2022/07/10 04:17:23;;;;;;;3.60;2.30;;;;;;;;;;7316827;19;154703;-19
2022/07/10 04:19:57;;;;;;;2.92;2.30;;;;;;;;;;7314610;19;153965;-17
2022/07/10 04:22:32;;;;;;;3.90;2.38;;;;;;;;;;7314752;19;162770;-17
2022/07/10 04:25:12;;;;;;;2.78;2.58;;;;;;;;;;7314221;19;162881;-17
2022/07/10 04:27:44;;;;;;;2.70;2.50;;;;;;;;;;7316454;19;154748;-16
2022/07/10 04:30:28;;;;;;;2.70;2.28;;;;;;;;;;7314376;19;154065;-17
2022/07/10 04:32:59;;;;;;;3.25;2.22;;;;;;;;;;7313141;19;162313;-17
2022/07/10 04:35:32;;;;;;;3.85;2.47;;;;;;;;;;7314007;19;163339;-17
2022/07/10 04:38:03;;;;;;;2.65;2.40;;;;;;;;;;7313564;19;154478;-17
2022/07/10 04:40:40;;;;;;;2.88;2.17;;;;;;;;;;7314677;19;154149;-16
2022/07/10 04:43:11;;;;;;;3.33;2.30;;;;;;;;;;7314723;19;162220;-17
2022/07/10 04:45:42;;;;;;;3.83;2.63;;;;;;;;;;7315645;19;162769;-17
2022/07/10 04:48:14;;;;;;;4.10;2.10;;;;;;;;;;7313643;19;154394;-17
2022/07/10 04:50:45;;;;;;;2.22;2.03;;;;;;;;;;7313462;19;154007;-17
2022/07/10 04:53:16;;;;;;;3.00;2.38;;;;;;;;;;7314825;19;161980;-17
2022/07/10 04:55:50;;;;;;;2.90;2.20;;;;;;;;;;7312448;19;162895;-17
2022/07/10 04:58:21;;;;;;;3.38;2.30;;;;;;;;;;7313390;19;154476;-17
2022/07/10 05:00:52;;;;;;;4.15;2.35;;;;;;;;;;7315928;19;154535;-17
2022/07/10 05:03:23;;;;;;;2.25;2.05;;;;;;;;;;7312623;19;162214;-17
2022/07/10 05:05:55;;;;;;;3.33;2.22;;;;;;;;;;7313986;19;162842;-17
2022/07/10 05:08:26;;;;;;;2.47;2.17;;;;;;;;;;7313942;19;155089;-16
2022/07/10 05:11:00;;;;;;;3.22;2.10;;;;;;;;;;7310379;19;154017;-17
2022/07/10 05:13:31;;;;;;;2.90;2.40;;;;;;;;;;7313034;19;162833;-19
2022/07/10 05:16:03;;;;;;;2.75;2.50;;;;;;;;;;7315347;19;162855;-16
2022/07/10 05:18:34;;;;;;;2.03;1.88;;;;;;;;;;7311143;19;154508;-17
2022/07/10 05:21:05;;;;;;;3.30;2.33;;;;;;;;;;7314048;19;154090;-16
2022/07/10 05:23:37;;;;;;;2.53;1.92;;;;;;;;;;7314635;19;162630;-17
2022/07/10 05:26:11;;;;;;;2.40;2.15;;;;;;;;;;7311738;19;162924;-16
2022/07/10 05:28:42;;;;;;;3.22;2.30;;;;;;;;;;7314179;19;154516;-16
2022/07/10 05:31:13;;;;;;;2.60;2.40;;;;;;;;;;7314936;19;154439;-17
2022/07/10 05:33:44;;;;;;;2.20;2.00;;;;;;;;;;7309862;19;162965;-17
2022/07/10 05:36:15;;;;;;;2.13;2.03;;;;;;;;;;7310657;19;162834;-16
2022/07/10 05:38:47;;;;;;;2.58;2.38;;;;;;;;;;7314618;19;154394;-17
2022/07/10 05:41:20;;;;;;;3.15;2.28;;;;;;;;;;7313102;19;153918;-16
2022/07/10 05:43:51;;;;;;;2.50;2.30;;;;;;;;;;7312974;19;162743;-17
2022/07/10 05:46:23;;;;;;;2.42;2.22;;;;;;;;;;7314424;19;163557;-16
2022/07/10 05:48:54;;;;;;;2.00;1.88;;;;;;;;;;7312080;19;154476;-16
2022/07/10 05:51:26;;;;;;;2.70;2.05;;;;;;;;;;7313054;19;153954;-17
2022/07/10 05:54:01;;;;;;;2.20;2.03;;;;;;;;;;7311430;19;162724;-16
2022/07/10 05:56:35;;;;;;;2.38;2.17;;;;;;;;;;7311621;19;162798;-16
2022/07/10 05:59:07;;;;;;;2.08;1.88;;;;;;;;;;7314204;19;154448;-16
2022/07/10 06:01:38;;;;;;;2.38;2.13;;;;;;;;;;7312775;19;154031;-16
2022/07/10 06:04:10;;;;;;;2.92;2.08;;;;;;;;;;7312295;19;162243;-16
2022/07/10 06:06:41;;;;;;;2.45;2.25;;;;;;;;;;7312902;19;162888;-15
2022/07/10 06:09:12;;;;;;;3.10;1.83;;;;;;;;;;7310796;19;154461;-18
2022/07/10 06:11:48;;;;;;;2.22;2.05;;;;;;;;;;7312299;19;153962;-16
2022/07/10 06:14:19;;;;;;;2.35;2.05;;;;;;;;;;7309756;19;162578;-15
2022/07/10 06:16:50;;;;;;;2.50;2.28;;;;;;;;;;7310806;19;162981;-17
2022/07/10 06:19:21;;;;;;;3.10;2.10;;;;;;;;;;7312337;19;154481;-17
2022/07/10 06:22:30;;;;;;;2.25;2.05;;;;;;;;;;7312785;19;153988;-17
2022/07/10 06:24:44;;;;;;;2.35;2.17;;;;;;;;;;7308933;19;162795;-17
2022/07/10 06:27:18;;;;;;;2.55;2.20;;;;;;;;;;7311642;19;163326;-17
2022/07/10 06:29:49;;;;;;;2.58;2.17;;;;;;;;;;7310697;19;154456;-17
2022/07/10 06:32:20;;;;;;;2.35;2.15;;;;;;;;;;7310180;19;153955;-17
2022/07/10 06:34:51;;;;;;;3.67;2.10;;;;;;;;;;7310229;19;162279;-17
2022/07/10 06:37:23;;;;;;;4.07;1.92;;;;;;;;;;7311081;19;163375;-16
2022/07/10 06:39:54;;;;;;;1.85;1.75;;;;;;;;;;7310147;19;154994;-16
2022/07/10 06:42:28;;;;;;;2.75;2.03;;;;;;;;;;7311222;19;155157;-17
2022/07/10 06:45:03;;;;;;;2.38;2.17;;;;;;;;;;7308814;19;162265;-17
2022/07/10 06:50:18;;;;;;;2.28;2.08;;;;;;;;;;7310543;19;154866;-17
2022/07/10 06:52:49;;;;;;;2.15;1.95;;;;;;;;;;7311855;19;153925;-17
2022/07/10 06:55:22;;;;;;;2.20;2.00;;;;;;;;;;7308263;19;162289;-16
2022/07/10 06:57:56;;;;;;;3.17;2.03;;;;;;;;;;7309600;19;162780;-16
2022/07/10 07:00:28;;;;;;;2.35;1.90;;;;;;;;;;7310633;19;154374;-17
2022/07/10 07:02:59;;;;;;;1.73;1.63;;;;;;;;;;7309410;19;154706;-17
2022/07/10 07:05:30;;;;;;;2.53;2.00;;;;;;;;;;7310394;19;162210;-16
2022/07/10 07:08:01;;;;;;;2.40;2.10;;;;;;;;;;7310080;19;162359;-17
2022/07/10 07:10:33;;;;;;;2.33;1.85;;;;;;;;;;7310277;19;154952;-16
2022/07/10 07:13:09;;;;;;;2.63;2.00;;;;;;;;;;7310598;19;154666;-17
2022/07/10 07:15:45;;;;;;;2.22;1.92;;;;;;;;;;7307371;19;162416;-17
2022/07/10 07:18:17;;;;;;;3.42;2.25;;;;;;;;;;7310458;19;162967;-17
2022/07/10 07:23:32;;;;;;;1.90;1.80;;;;;;;;;;7311542;19;153921;-15
2022/07/10 07:26:03;;;;;;;2.00;1.83;;;;;;;;;;7309314;19;162364;-16
2022/07/10 07:28:37;;;;;;;2.08;1.92;;;;;;;;;;7309402;19;163609;-16
2022/07/10 07:31:08;;;;;;;2.42;1.77;;;;;;;;;;7311303;19;154522;-16
2022/07/10 07:33:42;;;;;;;2.15;2.05;;;;;;;;;;7309541;19;153915;-16
2022/07/10 07:36:13;;;;;;;1.90;1.80;;;;;;;;;;7315146;19;162761;-16
2022/07/10 07:38:45;;;;;;;2.35;2.17;;;;;;;;;;7315236;19;162791;-15
2022/07/10 07:41:16;;;;;;;1.67;1.58;;;;;;;;;;7315562;19;154439;-17
2022/07/10 07:43:50;;;;;;;1.95;1.80;;;;;;;;;;7316311;19;154266;-17
2022/07/10 07:46:21;;;;;;;2.25;2.10;;;;;;;;;;7315068;19;162277;-17
2022/07/10 07:48:52;;;;;;;3.15;2.22;;;;;;;;;;7314951;19;163336;-17
2022/07/10 07:51:24;;;;;;;2.35;1.95;;;;;;;;;;7316880;19;154387;-16
2022/07/10 07:53:55;;;;;;;1.90;1.80;;;;;;;;;;7315157;19;154004;-16
2022/07/10 07:56:26;;;;;;;2.35;2.15;;;;;;;;;;7313394;19;161894;-16
2022/07/10 07:59:00;;;;;;;2.20;2.00;;;;;;;;;;7316140;19;162766;-17
2022/07/10 08:01:31;;;;;;;2.25;2.00;;;;;;;;;;7315550;19;154591;-16
2022/07/10 08:04:02;;;;;;;1.95;1.73;;;;;;;;;;7315263;19;153939;-17
2022/07/10 08:06:38;;;;;;;1.95;1.85;;;;;;;;;;7317030;19;162637;-17
2022/07/10 08:09:09;;;;;;;2.15;1.77;;;;;;;;;;7315534;19;162757;-16
2022/07/10 08:11:40;;;;;;;2.20;2.00;;;;;;;;;;7314875;19;154712;-17
2022/07/10 08:14:14;;;;;;;1.95;1.85;;;;;;;;;;7316730;19;153881;-17
2022/07/10 08:16:45;;;;;;;2.38;1.80;;;;;;;;;;7310613;19;162296;-17
2022/07/10 08:19:16;;;;;;;2.78;2.13;;;;;;;;;;7316135;19;162863;-17
2022/07/10 08:21:48;;;;;;;2.00;1.90;;;;;;;;;;7315512;19;154352;-16
2022/07/10 08:24:19;;;;;;;1.92;1.75;;;;;;;;;;7316453;19;154900;-15
2022/07/10 08:26:50;;;;;;;1.88;1.75;;;;;;;;;;7314092;19;162261;-17
2022/07/10 08:29:25;;;;;;;1.75;1.65;;;;;;;;;;7314074;19;162840;-17
2022/07/10 08:31:56;;;;;;;1.92;1.80;;;;;;;;;;7315094;19;154469;-17
2022/07/10 08:34:27;;;;;;;1.90;1.80;;;;;;;;;;7315425;19;154410;-17
2022/07/10 08:36:58;;;;;;;2.00;1.90;;;;;;;;;;7311862;19;162573;-17
2022/07/10 08:39:29;;;;;;;5.15;3.28;;;;;;;;;;7312296;19;162835;-17
2022/07/10 08:42:01;;;;;;;5.25;4.03;;;;;;;;;;7314622;19;154440;-16
2022/07/10 08:44:37;;;;;;;5.35;3.55;;;;;;;;;;7314557;19;154528;-17
2022/07/10 08:47:08;;;;;;;5.95;3.90;;;;;;;;;;7314210;19;162762;-17
2022/07/10 08:49:40;;;;;;;5.22;3.70;;;;;;;;;;7314139;19;162792;-17
2022/07/10 08:52:25;;;;;;;5.95;3.70;;;;;;;;;;7314453;19;154474;-17
2022/07/10 08:54:58;;;;;;;7.55;3.88;;;;;;;;;;7314468;19;153933;-17
2022/07/10 08:57:31;;;;;;;7.82;4.50;;;;;;;;;;7311092;19;161815;-17
2022/07/10 09:00:05;;;;;;;6.22;4.18;;;;;;;;;;7312492;19;162822;-16
2022/07/10 09:02:37;;;;;;;10.75;4.50;;;;;;;;;;7311590;19;154549;-17
2022/07/10 09:05:09;;;;;;;7.28;3.95;;;;;;;;;;7313951;19;154497;-16
2022/07/10 09:07:41;;;;;;;9.98;4.20;;;;;;;;;;7313129;19;162226;-17
2022/07/10 09:10:13;;;;;;;;;;;;;;;;;;7312728;19;162844;-17
2022/07/10 09:12:56;;;;;;;8.80;4.78;;;;;;;;;;7313858;19;155093;-16
2022/07/10 09:15:32;;;;;;;9.60;4.20;;;;;;;;;;7314403;19;153973;-17
2022/07/10 09:18:07;;;;;;;5.68;4.05;;;;;;;;;;7311173;19;162328;-17
2022/07/10 09:20:40;;;;;;;5.93;4.00;;;;;;;;;;7313885;19;163027;-16
2022/07/10 09:23:20;;;;;;;9.10;4.50;;;;;;;;;;7313440;19;154787;-17
2022/07/10 09:25:52;;;;;;;8.13;4.18;;;;;;;;;;7315044;19;153954;-17
2022/07/10 09:28:23;;;;;;;;;;;;;;;;;;7313990;19;162368;-19
2022/07/10 09:30:58;;;;;;;10.05;4.32;;;;;;;;;;7313336;19;163112;-17
2022/07/10 09:33:33;;;;;;;9.80;4.40;;;;;;;;;;7312667;19;154454;-17
2022/07/10 09:36:10;;;;;;;9.52;4.65;;;;;;;;;;7311467;19;154837;-17
2022/07/10 09:38:57;;;;;;;6.07;3.72;;;;;;;;;;7310579;19;162919;-17
2022/07/10 09:41:29;;;;;;;7.85;4.50;;;;;;;;;;7312546;19;163271;-16
2022/07/10 09:44:03;;;;;;;8.95;4.88;;;;;;;;;;7313337;19;154466;-17
2022/07/10 09:46:38;;;;;;;5.57;4.47;;;;;;;;;;7311835;19;154564;-17
2022/07/10 09:49:12;;;;;;;6.03;4.50;;;;;;;;;;7311176;19;162262;-16
2022/07/10 09:51:45;;;;;;;9.15;4.93;;;;;;;;;;7312308;19;163223;-17
2022/07/10 09:54:18;;;;;;;7.82;4.18;;;;;;;;;;7311867;19;154982;-16
2022/07/10 09:56:51;;;;;;;7.72;3.72;;;;;;;;;;7309152;19;154063;-17
2022/07/10 09:59:23;;;;;;;7.70;3.85;;;;;;;;;;7311422;19;162273;-16
2022/07/10 10:01:59;;;;;;;8.00;4.30;;;;;;;;;;7309536;19;162846;-17
2022/07/10 10:04:32;;;;;;;7.88;4.05;;;;;;;;;;7312059;19;154448;-17
2022/07/10 10:07:12;;;;;;;7.20;4.30;;;;;;;;;;7310436;19;154080;-17
2022/07/10 10:09:48;;;;;;;6.75;4.20;;;;;;;;;;7310880;19;162303;-17
2022/07/10 10:12:25;;;;;;;5.47;3.90;;;;;;;;;;7311572;19;162798;-17
2022/07/10 10:14:57;;;;;;;11.70;4.25;;;;;;;;;;7310337;19;154483;-17
2022/07/10 10:17:31;;;;;;;4.80;3.40;;;;;;;;;;7310078;19;154039;-20
2022/07/10 10:22:48;;;;;;;4.65;3.97;;;;;;;;;;7310926;19;162846;-17
2022/07/10 10:25:19;;;;;;;7.53;4.50;;;;;;;;;;7309727;19;154138;-17
2022/07/10 10:27:51;;;;;;;5.97;3.92;;;;;;;;;;7312811;19;154641;-17
2022/07/10 10:30:22;;;;;;;5.03;3.55;;;;;;;;;;7310534;19;162741;-15
2022/07/10 10:32:56;;;;;;;5.60;3.72;;;;;;;;;;7309906;19;163030;-17
2022/07/10 10:35:51;;;;;;;6.15;3.90;;;;;;;;;;7311409;19;154966;-17
2022/07/10 10:38:25;;;;;;;4.57;3.63;;;;;;;;;;7306238;19;154045;-17
2022/07/10 10:40:56;;;;;;;8.50;4.35;;;;;;;;;;7311904;19;162735;-17
2022/07/10 10:43:27;;;;;;;7.20;3.55;;;;;;;;;;7309887;19;162432;-17
2022/07/10 10:45:58;;;;;;;8.43;3.70;;;;;;;;;;7309883;19;154408;-16
2022/07/10 10:48:32;;;;;;;8.20;3.95;;;;;;;;;;7311379;19;154303;-15
2022/07/10 10:51:07;;;;;;;4.43;3.92;;;;;;;;;;7309523;19;162828;-15
2022/07/10 10:53:39;;;;;;;7.10;3.60;;;;;;;;;;7310523;19;162797;-17
2022/07/10 10:56:26;;;;;;;5.38;3.60;;;;;;;;;;7309594;19;154392;-17
2022/07/10 10:58:57;;;;;;;5.95;3.85;;;;;;;;;;7307056;19;153962;-16
2022/07/10 11:01:32;;;;;;;5.55;3.72;;;;;;;;;;7308945;19;162585;-16
2022/07/10 11:04:21;;;;;;;5.32;4.05;;;;;;;;;;7311516;19;163317;-16
2022/07/10 11:06:53;;;;;;;5.28;3.72;;;;;;;;;;7309869;19;155190;-16
2022/07/10 11:09:28;;;;;;;5.20;3.17;;;;;;;;;;7312453;19;153992;-17
2022/07/10 11:12:04;;;;;;;4.38;3.30;;;;;;;;;;7318536;19;162280;-15
2022/07/10 11:14:37;;;;;;;5.13;3.20;;;;;;;;;;7316754;19;162798;-16
2022/07/10 11:17:09;;;;;;;;;;;;;;;;;;7317800;19;154365;-17
2022/07/10 11:19:42;;;;;;;4.65;3.83;;;;;;;;;;7317115;19;154145;-17
2022/07/10 11:22:49;;;;;;;8.05;3.35;;;;;;;;;;7316665;19;162228;-16
2022/07/10 11:25:42;;;;;;;7.10;3.88;;;;;;;;;;7314750;19;162841;-16
2022/07/10 11:28:14;;;;;;;5.80;3.33;;;;;;;;;;7316689;19;154440;-16
2022/07/10 11:30:47;;;;;;;5.13;3.92;;;;;;;;;;7316521;19;154024;-16
2022/07/10 11:33:20;;;;;;;10.57;3.57;;;;;;;;;;7315137;19;162444;-16
2022/07/10 11:35:56;;;;;;;13.30;4.43;;;;;;;;;;7315032;19;163215;-16
2022/07/10 11:38:29;;;;;;;7.68;3.55;;;;;;;;;;7315572;19;154370;-16
2022/07/10 11:41:00;;;;;;;6.30;3.97;;;;;;;;;;7316440;19;154457;-15
2022/07/10 11:43:31;;;;;;;9.13;4.60;;;;;;;;;;7315999;19;162310;-16
2022/07/10 11:46:05;;;;;;;5.40;3.78;;;;;;;;;;7315671;19;163026;-16
2022/07/10 11:48:42;;;;;;;7.90;3.28;;;;;;;;;;7316386;19;154380;-15
2022/07/10 11:51:25;;;;;;;7.47;4.25;;;;;;;;;;7317587;19;153935;-16
2022/07/10 11:53:58;;;;;;;7.63;4.07;;;;;;;;;;7316575;19;161853;-16
2022/07/10 11:56:32;;;;;;;7.25;3.92;;;;;;;;;;7315502;19;163243;-16
2022/07/10 11:59:06;;;;;;;6.82;3.85;;;;;;;;;;7314255;19;154461;-16
2022/07/10 12:01:43;;;;;;;7.75;3.60;;;;;;;;;;7315245;19;153971;-15
2022/07/10 12:04:16;;;;;;;8.32;3.70;;;;;;;;;;7316189;19;162656;-15
2022/07/10 12:06:51;;;;;;;8.25;3.70;;;;;;;;;;7314756;19;162808;-16
2022/07/10 12:09:24;;;;;;;12.05;3.78;;;;;;;;;;7316131;19;154761;-16
2022/07/10 12:12:03;;;;;;;5.90;3.33;;;;;;;;;;7316508;19;154215;-15
2022/07/10 12:14:35;;;;;;;5.75;3.50;;;;;;;;;;7316094;19;162415;-16
2022/07/10 12:17:13;;;;;;;7.00;3.50;;;;;;;;;;7315981;19;163336;-15
2022/07/10 12:19:46;;;;;;;12.52;4.15;;;;;;;;;;7313138;19;154478;-16
2022/07/10 12:22:20;;;;;;;8.20;3.60;;;;;;;;;;7315233;19;154151;-16
2022/07/10 12:24:52;;;;;;;5.88;3.08;;;;;;;;;;7315498;19;162272;-16
2022/07/10 12:27:44;;;;;;;9.50;3.70;;;;;;;;;;7313771;19;162927;-16
2022/07/10 12:30:17;;;;;;;6.95;3.55;;;;;;;;;;7315385;19;154833;-16
2022/07/10 12:32:49;;;;;;;7.28;3.40;;;;;;;;;;7315175;19;153981;-16
2022/07/10 12:35:21;;;;;;;6.00;4.00;;;;;;;;;;7315298;19;162785;-16
2022/07/10 12:37:55;;;;;;;6.60;4.10;;;;;;;;;;7310879;19;162965;-16
2022/07/10 12:40:33;;;;;;;14.18;6.80;;;;;;;;;;7314857;19;154460;-16
2022/07/10 12:43:06;;;;;;;19.80;6.85;;;;;;;;;;7314294;19;154448;-16
2022/07/10 12:45:37;;;;;;;;;;;;;;;;;;7314746;19;162339;-17
2022/07/10 12:48:08;;;;;;;19.08;7.18;;;;;;;;;;7314644;19;163002;-15
2022/07/10 12:50:39;;;;;;;12.35;6.50;;;;;;;;;;7314470;19;154399;-16
2022/07/10 12:53:14;;;;;;;13.73;6.70;;;;;;;;;;7314355;19;154597;-22
2022/07/10 12:55:46;;;;;;;12.52;5.68;;;;;;;;;;7313261;19;162761;-16
2022/07/10 12:58:18;;;;;;;17.73;6.35;;;;;;;;;;7311618;19;162848;-15
2022/07/10 13:00:50;;;;;;;11.90;6.03;;;;;;;;;;7313629;19;154477;-16
2022/07/10 13:03:24;;;;;;;15.20;6.47;;;;;;;;;;7313889;19;154026;-16
2022/07/10 13:05:57;;;;;;;10.20;6.13;;;;;;;;;;7314182;19;162873;-16
2022/07/10 13:08:31;;;;;;;12.73;6.25;;;;;;;;;;7313797;19;163321;-17
2022/07/10 13:11:02;;;;;;;13.27;5.63;;;;;;;;;;7313457;19;156272;-16
2022/07/10 13:13:33;;;;;;;11.40;5.85;;;;;;;;;;7313301;19;154442;-16
2022/07/10 13:16:05;;;;;;;18.33;7.20;;;;;;;;;;7314284;19;161738;-16
2022/07/10 13:18:37;;;;;;;11.27;5.80;;;;;;;;;;7310591;19;162905;-16
2022/07/10 13:21:08;;;;;;;13.85;5.35;;;;;;;;;;7313632;19;154523;-16
2022/07/10 13:23:42;;;;;;;11.38;5.78;;;;;;;;;;7314365;19;154024;-16
2022/07/10 13:26:13;;;;;;;13.85;6.03;;;;;;;;;;7311575;19;162318;-16
2022/07/10 13:28:44;;;;;;;12.52;5.22;;;;;;;;;;7312759;19;162713;-16
2022/07/10 13:31:16;;;;;;;10.63;4.97;;;;;;;;;;7312841;19;154424;-17
2022/07/10 13:33:47;;;;;;;12.80;5.63;;;;;;;;;;7312936;19;154462;-17
2022/07/10 13:36:19;;;;;;;12.50;5.43;;;;;;;;;;7312763;19;162591;-16
2022/07/10 13:38:54;;;;;;;9.25;5.28;;;;;;;;;;7312668;19;162903;-16
2022/07/10 13:41:25;;;;;;;12.52;5.15;;;;;;;;;;7313458;19;154569;-17
2022/07/10 13:43:57;;;;;;;13.55;5.25;;;;;;;;;;7313518;19;154057;-17
2022/07/10 13:46:28;;;;;;;14.30;6.00;;;;;;;;;;7312796;19;162889;-17
2022/07/10 13:48:59;;;;;;;10.68;4.75;;;;;;;;;;7312935;19;162353;-17
2022/07/10 13:51:30;;;;;;;12.55;5.13;;;;;;;;;;7313047;19;154507;-18
2022/07/10 13:54:04;;;;;;;7.72;4.53;;;;;;;;;;7312927;19;154085;-17
2022/07/10 13:56:36;;;;;;;10.65;4.88;;;;;;;;;;7310813;19;162715;-16
2022/07/10 13:59:07;;;;;;;9.77;5.30;;;;;;;;;;7310180;19;162871;-15
2022/07/10 14:01:38;;;;;;;10.50;5.32;;;;;;;;;;7312482;19;154752;-15
2022/07/10 14:04:09;;;;;;;8.95;4.32;;;;;;;;;;7312403;19;153935;-14
2022/07/10 14:06:41;;;;;;;10.68;5.20;;;;;;;;;;7312057;19;162229;-16
2022/07/10 14:09:15;;;;;;;10.20;4.90;;;;;;;;;;7311903;19;162806;-15
2022/07/10 14:11:46;;;;;;;9.68;4.72;;;;;;;;;;7312270;19;154746;-15
2022/07/10 14:14:18;;;;;;;15.40;5.38;;;;;;;;;;7310930;19;154020;-16
2022/07/10 14:16:49;;;;;;;8.18;5.03;;;;;;;;;;7311671;19;162325;-16
2022/07/10 14:19:20;;;;;;;11.70;5.13;;;;;;;;;;7311274;19;162946;-16
2022/07/10 14:21:51;;;;;;;8.68;5.00;;;;;;;;;;7312226;19;154416;-16
2022/07/10 14:24:26;;;;;;;11.93;4.95;;;;;;;;;;7311779;19;153918;-16
2022/07/10 14:26:57;;;;;;;8.68;4.60;;;;;;;;;;7311136;19;162293;-16
2022/07/10 14:29:29;;;;;;;7.53;4.25;;;;;;;;;;7310054;19;163331;-16
2022/07/10 14:32:00;;;;;;;6.47;4.20;;;;;;;;;;7311665;19;154474;-16
2022/07/10 14:34:49;;;;;;;7.70;4.72;;;;;;;;;;7311441;19;154050;-16
2022/07/10 14:37:21;;;;;;;6.32;4.07;;;;;;;;;;7309232;19;162356;-15
2022/07/10 14:39:55;;;;;;;6.07;4.30;;;;;;;;;;7310040;19;162780;-16
2022/07/10 14:42:26;;;;;;;10.55;4.10;;;;;;;;;;7311299;19;155023;-16
2022/07/10 14:44:58;;;;;;;9.13;4.40;;;;;;;;;;7318213;19;154554;-17
2022/07/10 14:47:29;;;;;;;9.23;4.50;;;;;;;;;;7317380;19;162740;-16
2022/07/10 14:50:00;;;;;;;8.20;3.92;;;;;;;;;;7317612;19;163168;-16
2022/07/10 14:52:33;;;;;;;12.00;4.70;;;;;;;;;;7317944;19;154387;-16
2022/07/10 14:55:08;;;;;;;9.02;4.50;;;;;;;;;;7317869;19;154114;-16
2022/07/10 14:57:40;;;;;;;6.65;4.25;;;;;;;;;;7317390;19;162331;-16
2022/07/10 15:00:12;;;;;;;10.43;4.38;;;;;;;;;;7316582;19;163459;-18
2022/07/10 15:02:43;;;;;;;16.27;4.47;;;;;;;;;;7318102;19;154393;-16
2022/07/10 15:05:14;;;;;;;8.15;4.05;;;;;;;;;;7318119;19;154451;-17
2022/07/10 15:07:46;;;;;;;7.57;4.63;;;;;;;;;;7317211;19;162631;-17
2022/07/10 15:10:20;;;;;;;8.00;4.15;;;;;;;;;;7317271;19;163454;-17
2022/07/10 15:12:51;;;;;;;8.07;4.13;;;;;;;;;;7317218;19;154768;-17